createdAt,value
2022-10-03T00:01:09.494Z,10.97
2022-10-03T00:03:29.685Z,8.60
2022-10-03T00:06:15.442Z,12.33
2022-10-03T00:08:55.671Z,17.10
2022-10-03T00:11:20.831Z,21.37
2022-10-03T00:13:35.314Z,11.33
2022-10-03T00:15:53.475Z,12.03
2022-10-03T00:18:15.448Z,19.03
2022-10-03T00:20:55.478Z,13.97
2022-10-03T00:23:06.760Z,15.07
2022-10-03T00:25:35.187Z,20.03
2022-10-03T00:27:52.710Z,11.10
2022-10-03T00:30:10.565Z,15.80
2022-10-03T00:32:24.262Z,14.53
2022-10-03T00:34:32.456Z,13.10
2022-10-03T00:36:44.909Z,15.60
2022-10-03T00:39:24.614Z,13.30
2022-10-03T00:41:58.027Z,13.50
2022-10-03T00:44:30.686Z,14.60
2022-10-03T00:46:51.058Z,15.00
2022-10-03T00:49:11.307Z,28.63
2022-10-03T00:51:32.202Z,13.70
2022-10-03T00:53:50.853Z,15.80
2022-10-03T00:56:01.576Z,13.57
2022-10-03T00:58:18.899Z,16.20
2022-10-03T01:00:31.131Z,14.57
2022-10-03T01:02:42.906Z,14.13
2022-10-03T01:04:57.813Z,16.97
2022-10-03T01:07:21.047Z,17.27
2022-10-03T01:10:00.620Z,12.23
2022-10-03T01:12:19.096Z,11.17
2022-10-03T01:14:28.796Z,22.73
2022-10-03T01:16:51.838Z,18.50
2022-10-03T01:18:57.884Z,15.57
2022-10-03T01:21:02.803Z,14.87
2022-10-03T01:23:15.839Z,19.00
2022-10-03T01:25:56.505Z,18.67
2022-10-03T01:28:26.282Z,15.23
2022-10-03T01:30:36.939Z,8.90
2022-10-03T01:32:53.147Z,21.57
2022-10-03T01:35:12.188Z,15.40
2022-10-03T01:37:25.508Z,20.83
2022-10-03T01:39:31.884Z,20.10
2022-10-03T01:41:59.113Z,16.53
2022-10-03T01:44:16.445Z,18.83
2022-10-03T01:46:22.643Z,18.17
2022-10-03T01:48:45.435Z,13.70
2022-10-03T01:51:11.557Z,20.97
2022-10-03T01:53:20.271Z,20.47
2022-10-03T01:55:45.867Z,11.60
2022-10-03T01:57:50.137Z,13.17
2022-10-03T02:00:01.878Z,32.83
2022-10-03T02:02:32.200Z,13.90
2022-10-03T02:04:34.173Z,15.27
2022-10-03T02:06:43.021Z,17.30
2022-10-03T02:08:52.327Z,17.20
2022-10-03T02:11:01.646Z,18.97
2022-10-03T02:13:13.878Z,18.20
2022-10-03T02:15:24.679Z,13.60
2022-10-03T02:17:35.731Z,7.77
2022-10-03T02:19:50.224Z,16.63
2022-10-03T02:21:57.344Z,19.60
2022-10-03T02:24:28.591Z,12.80
2022-10-03T02:26:42.332Z,19.43
2022-10-03T02:28:55.353Z,19.90
2022-10-03T02:31:34.481Z,18.47
2022-10-03T02:33:41.213Z,17.43
2022-10-03T02:36:01.932Z,19.70
2022-10-03T02:38:10.266Z,19.30
2022-10-03T02:40:48.318Z,14.13
2022-10-03T02:43:18.526Z,15.53
2022-10-03T02:45:29.773Z,10.70
2022-10-03T02:48:03.937Z,24.03
2022-10-03T02:50:43.530Z,15.10
2022-10-03T02:52:57.852Z,26.37
2022-10-03T02:55:14.375Z,18.60
2022-10-03T02:57:40.383Z,23.40
2022-10-03T03:00:09.427Z,14.73
2022-10-03T03:02:40.663Z,25.00
2022-10-03T03:05:23.777Z,14.43
2022-10-03T03:08:03.255Z,17.30
2022-10-03T03:10:33.167Z,16.13
2022-10-03T03:13:04.424Z,14.27
2022-10-03T03:15:45.824Z,14.20
2022-10-03T03:18:11.231Z,15.13
2022-10-03T03:20:41.216Z,13.77
2022-10-03T03:23:01.916Z,11.90
2022-10-03T03:25:19.685Z,29.37
2022-10-03T03:27:27.693Z,11.27
2022-10-03T03:29:43.325Z,18.13
2022-10-03T03:31:45.266Z,16.93
2022-10-03T03:34:12.612Z,11.60
2022-10-03T03:36:23.684Z,12.30
2022-10-03T03:38:32.125Z,19.47
2022-10-03T03:40:45.986Z,13.60
2022-10-03T03:43:16.659Z,16.60
2022-10-03T03:45:44.150Z,13.10
2022-10-03T03:47:50.699Z,14.23
2022-10-03T03:50:01.758Z,17.20
2022-10-03T03:52:14.672Z,8.10
2022-10-03T03:54:42.155Z,19.70
2022-10-03T03:56:56.098Z,23.10
2022-10-03T03:59:18.836Z,15.20
2022-10-03T04:01:38.614Z,13.00
2022-10-03T04:04:18.161Z,18.87
2022-10-03T04:06:34.988Z,23.23
2022-10-03T04:09:01.541Z,16.77
2022-10-03T04:11:22.655Z,11.10
2022-10-03T04:13:29.130Z,13.23
2022-10-03T04:15:37.015Z,31.73
2022-10-03T04:18:11.750Z,17.93
2022-10-03T04:20:38.116Z,31.60
2022-10-03T04:22:58.582Z,23.50
2022-10-03T04:25:01.354Z,14.97
2022-10-03T04:27:30.027Z,13.63
2022-10-03T04:29:54.555Z,19.83
2022-10-03T04:32:02.400Z,25.67
2022-10-03T04:34:04.322Z,20.27
2022-10-03T04:36:26.312Z,34.87
2022-10-03T04:38:54.659Z,20.70
2022-10-03T04:41:11.234Z,12.83
2022-10-03T04:43:24.906Z,19.97
2022-10-03T04:45:40.649Z,18.67
2022-10-03T04:47:54.009Z,17.87
2022-10-03T04:50:06.796Z,20.03
2022-10-03T04:52:28.274Z,15.40
2022-10-03T04:54:48.677Z,22.90
2022-10-03T04:56:59.730Z,28.43
2022-10-03T04:59:09.458Z,21.40
2022-10-03T05:01:26.465Z,26.63
2022-10-03T05:03:43.876Z,27.90
2022-10-03T05:05:59.676Z,20.67
2022-10-03T05:08:27.866Z,22.40
2022-10-03T05:10:55.667Z,19.73
2022-10-03T05:13:08.242Z,18.60
2022-10-03T05:15:42.268Z,17.83
2022-10-03T05:17:58.688Z,18.13
2022-10-03T05:20:03.826Z,20.53
2022-10-03T05:22:12.549Z,29.10
2022-10-03T05:24:20.472Z,19.50
2022-10-03T05:26:49.647Z,12.50
2022-10-03T05:29:01.855Z,16.23
2022-10-03T05:31:37.953Z,21.90
2022-10-03T05:33:55.366Z,17.13
2022-10-03T05:36:18.908Z,13.53
2022-10-03T05:38:39.574Z,16.80
2022-10-03T05:40:47.611Z,13.03
2022-10-03T05:42:49.603Z,20.57
2022-10-03T05:45:03.473Z,22.40
2022-10-03T05:47:42.877Z,18.87
2022-10-03T05:50:04.581Z,13.60
2022-10-03T05:52:35.192Z,32.60
2022-10-03T05:54:55.910Z,17.03
2022-10-03T05:57:29.270Z,21.73
2022-10-03T05:59:37.354Z,17.27
2022-10-03T06:02:13.083Z,16.03
2022-10-03T06:04:42.143Z,15.53
2022-10-03T06:07:20.326Z,22.40
2022-10-03T06:10:04.518Z,20.23
2022-10-03T06:12:10.044Z,25.43
2022-10-03T06:14:27.693Z,21.30
2022-10-03T06:16:38.763Z,32.47
2022-10-03T06:19:03.896Z,16.70
2022-10-03T06:21:12.817Z,21.77
2022-10-03T06:23:39.784Z,22.40
2022-10-03T06:26:03.041Z,15.63
2022-10-03T06:28:27.163Z,20.63
2022-10-03T06:31:00.294Z,22.30
2022-10-03T06:33:11.054Z,33.20
2022-10-03T06:35:22.089Z,17.10
2022-10-03T06:37:34.602Z,19.63
2022-10-03T06:40:13.765Z,22.50
2022-10-03T06:42:27.366Z,20.30
2022-10-03T06:44:46.087Z,30.10
2022-10-03T06:47:06.747Z,17.33
2022-10-03T06:49:37.130Z,28.93
2022-10-03T06:51:59.704Z,15.00
2022-10-03T06:54:49.342Z,21.13
2022-10-03T06:57:20.623Z,14.40
2022-10-03T06:59:37.709Z,20.47
2022-10-03T07:02:01.146Z,17.93
2022-10-03T07:04:27.658Z,27.27
2022-10-03T07:06:48.744Z,15.10
2022-10-03T07:09:13.847Z,20.30
2022-10-03T07:11:36.306Z,20.90
2022-10-03T07:14:16.834Z,11.70
2022-10-03T07:16:46.764Z,18.40
2022-10-03T07:19:03.895Z,15.17
2022-10-03T07:21:28.396Z,15.07
2022-10-03T07:23:52.334Z,18.77
2022-10-03T07:26:18.029Z,18.33
2022-10-03T07:29:06.274Z,19.20
2022-10-03T07:31:18.179Z,14.80
2022-10-03T07:33:26.263Z,13.93
2022-10-03T07:36:20.796Z,27.13
2022-10-03T07:38:59.087Z,9.13
2022-10-03T07:41:03.874Z,12.17
2022-10-03T07:43:30.134Z,7.00
2022-10-03T07:45:45.752Z,15.60
2022-10-03T07:48:13.390Z,15.17
2022-10-03T07:50:24.622Z,15.97
2022-10-03T07:52:35.543Z,16.07
2022-10-03T07:54:55.165Z,13.07
2022-10-03T07:57:21.809Z,15.60
2022-10-03T07:59:48.497Z,14.50
2022-10-03T08:01:54.682Z,13.00
2022-10-03T08:04:24.086Z,9.50
2022-10-03T08:06:35.256Z,18.63
2022-10-03T08:09:18.712Z,12.00
2022-10-03T08:11:37.001Z,8.17
2022-10-03T08:14:06.771Z,14.33
2022-10-03T08:16:19.082Z,9.67
2022-10-03T08:18:27.216Z,13.33
2022-10-03T08:20:50.084Z,12.73
2022-10-03T08:23:04.108Z,13.90
2022-10-03T08:25:37.294Z,15.17
2022-10-03T08:28:10.000Z,17.03
2022-10-03T08:30:22.521Z,14.63
2022-10-03T08:32:52.702Z,15.40
2022-10-03T08:35:03.435Z,11.37
2022-10-03T08:37:30.545Z,10.97
2022-10-03T08:40:11.127Z,16.03
2022-10-03T08:42:41.142Z,13.00
2022-10-03T08:45:00.918Z,11.33
2022-10-03T08:47:40.172Z,11.03
2022-10-03T08:49:45.041Z,11.30
2022-10-03T08:51:58.872Z,15.27
2022-10-03T08:54:37.239Z,7.50
2022-10-03T08:57:06.364Z,19.63
2022-10-03T08:59:41.077Z,9.50
2022-10-03T09:02:15.789Z,8.20
2022-10-03T09:04:36.796Z,11.00
2022-10-03T09:07:17.956Z,14.83
2022-10-03T09:09:36.571Z,11.37
2022-10-03T09:11:44.271Z,13.53
2022-10-03T09:13:58.363Z,12.40
2022-10-03T09:16:37.768Z,12.80
2022-10-03T09:19:04.748Z,14.57
2022-10-03T09:21:17.897Z,28.60
2022-10-03T09:23:33.709Z,14.20
2022-10-03T09:25:49.788Z,8.30
2022-10-03T09:28:08.740Z,20.80
2022-10-03T09:30:18.066Z,9.33
2022-10-03T09:32:45.227Z,11.90
2022-10-03T09:34:56.070Z,16.07
2022-10-03T09:37:16.494Z,10.90
2022-10-03T09:39:44.583Z,9.93
2022-10-03T09:41:52.362Z,9.53
2022-10-03T09:44:22.643Z,20.30
2022-10-03T09:46:41.870Z,15.53
2022-10-03T09:49:09.343Z,11.47
2022-10-03T09:51:28.915Z,17.93
2022-10-03T09:53:53.175Z,20.43
2022-10-03T09:56:25.595Z,14.17
2022-10-03T09:58:45.464Z,21.40
2022-10-03T10:01:02.580Z,11.83
2022-10-03T10:03:18.570Z,13.20
2022-10-03T10:05:59.693Z,16.33
2022-10-03T10:08:39.651Z,16.63
2022-10-03T10:10:57.983Z,7.93
2022-10-03T10:13:49.746Z,13.43
2022-10-03T10:16:29.387Z,10.20
2022-10-03T10:18:56.955Z,15.70
2022-10-03T10:21:50.170Z,16.63
2022-10-03T10:24:10.304Z,16.13
2022-10-03T10:26:34.106Z,16.40
2022-10-03T10:28:51.544Z,15.93
2022-10-03T10:31:26.282Z,12.30
2022-10-03T10:34:03.361Z,7.17
2022-10-03T10:36:40.827Z,10.60
2022-10-03T10:38:43.598Z,11.37
2022-10-03T10:41:28.480Z,12.27
2022-10-03T10:44:02.244Z,10.47
2022-10-03T10:46:13.418Z,13.93
2022-10-03T10:48:33.993Z,12.43
2022-10-03T10:51:15.785Z,7.70
2022-10-03T10:53:55.461Z,11.40
2022-10-03T10:56:35.197Z,11.77
2022-10-03T10:58:57.952Z,8.33
2022-10-03T11:01:37.963Z,11.43
2022-10-03T11:04:01.528Z,13.03
2022-10-03T11:06:18.642Z,11.73
2022-10-03T11:08:49.945Z,16.63
2022-10-03T11:10:52.573Z,8.40
2022-10-03T11:13:35.633Z,11.27
2022-10-03T11:15:54.878Z,7.97
2022-10-03T11:18:08.681Z,7.27
2022-10-03T11:20:20.288Z,8.50
2022-10-03T11:22:38.460Z,10.33
2022-10-03T11:24:58.873Z,10.23
2022-10-03T11:27:36.209Z,7.30
2022-10-03T11:29:59.687Z,12.13
2022-10-03T11:32:26.566Z,14.60
2022-10-03T11:34:56.150Z,5.50
2022-10-03T11:37:08.266Z,11.00
2022-10-03T11:39:43.839Z,8.23
2022-10-03T11:42:10.790Z,7.00
2022-10-03T11:44:25.823Z,9.10
2022-10-03T11:46:44.972Z,10.97
2022-10-03T11:48:57.154Z,10.20
2022-10-03T11:51:05.631Z,8.50
2022-10-03T11:53:10.473Z,10.10
2022-10-03T11:55:18.344Z,9.93
2022-10-03T11:57:34.675Z,8.83
2022-10-03T12:00:00.355Z,10.60
2022-10-03T12:02:30.463Z,13.73
2022-10-03T12:04:47.000Z,6.83
2022-10-03T12:07:07.804Z,9.47
2022-10-03T12:09:57.635Z,7.27
2022-10-03T12:12:07.114Z,8.30
2022-10-03T12:14:34.888Z,8.40
2022-10-03T12:17:08.552Z,8.17
2022-10-03T12:19:30.880Z,9.50
2022-10-03T12:21:39.476Z,11.30
2022-10-03T12:23:59.900Z,11.27
2022-10-03T12:26:03.516Z,9.10
2022-10-03T12:28:15.514Z,2.70
2022-10-03T12:30:19.846Z,5.93
2022-10-03T12:32:41.249Z,10.60
2022-10-03T12:34:51.214Z,4.27
2022-10-03T12:37:17.730Z,7.20
2022-10-03T12:39:45.004Z,9.17
2022-10-03T12:41:49.755Z,4.37
2022-10-03T12:44:21.548Z,11.90
2022-10-03T12:47:03.290Z,9.37
2022-10-03T12:49:29.839Z,10.73
2022-10-03T12:51:39.761Z,5.13
2022-10-03T12:53:57.876Z,5.10
2022-10-03T12:56:02.593Z,5.30
2022-10-03T12:58:30.979Z,7.03
2022-10-03T13:00:49.635Z,6.80
2022-10-03T13:03:09.507Z,11.00
2022-10-03T13:05:56.341Z,9.07
2022-10-03T13:08:27.614Z,4.90
2022-10-03T13:10:39.392Z,5.93
2022-10-03T13:13:16.642Z,12.47
2022-10-03T13:15:42.815Z,4.27
2022-10-03T13:17:55.247Z,4.37
2022-10-03T13:20:01.664Z,6.73
2022-10-03T13:22:15.547Z,5.80
2022-10-03T13:24:32.080Z,9.37
2022-10-03T13:26:49.303Z,5.00
2022-10-03T13:29:17.352Z,6.57
2022-10-03T13:31:24.342Z,3.33
2022-10-03T13:33:29.618Z,10.00
2022-10-03T13:35:55.848Z,5.23
2022-10-03T13:38:32.639Z,5.77
2022-10-03T13:40:43.442Z,10.13
2022-10-03T13:42:52.304Z,10.60
2022-10-03T13:45:03.458Z,7.60
2022-10-03T13:47:30.030Z,11.37
2022-10-03T13:49:37.170Z,5.67
2022-10-03T13:52:02.821Z,7.30
2022-10-03T13:54:21.278Z,6.43
2022-10-03T13:56:45.332Z,9.70
2022-10-03T13:59:09.722Z,6.37
2022-10-03T14:01:24.280Z,5.97
2022-10-03T14:03:32.127Z,11.07
2022-10-03T14:05:40.823Z,5.30
2022-10-03T14:07:59.956Z,4.67
2022-10-03T14:10:37.305Z,4.93
2022-10-03T14:12:55.658Z,6.70
2022-10-03T14:15:06.733Z,4.10
2022-10-03T14:17:13.914Z,4.50
2022-10-03T14:19:24.569Z,5.40
2022-10-03T14:21:46.654Z,3.77
2022-10-03T14:23:48.621Z,7.00
2022-10-03T14:25:56.550Z,7.43
2022-10-03T14:28:07.364Z,2.70
2022-10-03T14:30:20.284Z,6.70
2022-10-03T14:32:48.124Z,9.17
2022-10-03T14:34:53.660Z,7.57
2022-10-03T14:37:15.307Z,8.93
2022-10-03T14:39:40.613Z,6.47
2022-10-03T14:41:52.207Z,5.47
2022-10-03T14:44:00.123Z,7.07
2022-10-03T14:46:03.231Z,7.67
2022-10-03T14:48:08.742Z,3.40
2022-10-03T14:50:25.865Z,5.50
2022-10-03T14:52:32.452Z,10.83
2022-10-03T14:54:37.747Z,6.90
2022-10-03T14:56:45.112Z,2.93
2022-10-03T14:58:50.548Z,4.27
2022-10-03T15:01:01.750Z,3.73
2022-10-03T15:03:16.573Z,6.63
2022-10-03T15:05:33.314Z,2.23
2022-10-03T15:07:40.027Z,14.33
2022-10-03T15:09:43.529Z,8.30
2022-10-03T15:11:58.930Z,4.30
2022-10-03T15:14:09.444Z,3.20
2022-10-03T15:16:16.029Z,10.27
2022-10-03T15:18:21.532Z,7.60
2022-10-03T15:20:31.241Z,6.40
2022-10-03T15:22:39.624Z,4.10
2022-10-03T15:24:42.099Z,3.77
2022-10-03T15:26:50.105Z,5.87
2022-10-03T15:28:54.532Z,5.83
2022-10-03T15:30:59.089Z,5.60
2022-10-03T15:33:15.256Z,4.27
2022-10-03T15:35:25.168Z,7.17
2022-10-03T15:37:33.946Z,4.67
2022-10-03T15:39:40.411Z,6.77
2022-10-03T15:42:14.399Z,3.17
2022-10-03T15:44:22.106Z,7.30
2022-10-03T15:46:36.647Z,6.60
2022-10-03T15:48:45.384Z,6.27
2022-10-03T15:50:52.206Z,6.10
2022-10-03T15:53:04.653Z,9.63
2022-10-03T15:55:26.961Z,4.03
2022-10-03T15:57:36.192Z,10.30
2022-10-03T15:59:43.549Z,4.70
2022-10-03T16:01:48.268Z,4.40
2022-10-03T16:03:52.558Z,7.93
2022-10-03T16:06:03.478Z,12.00
2022-10-03T16:08:19.589Z,5.60
2022-10-03T16:10:24.222Z,4.45
2022-10-03T16:12:38.409Z,5.70
2022-10-03T16:14:48.162Z,8.73
2022-10-03T16:16:59.786Z,6.50
2022-10-03T16:19:40.088Z,3.80
2022-10-03T16:21:48.884Z,4.10
2022-10-03T16:23:54.092Z,7.57
2022-10-03T16:25:59.929Z,6.03
2022-10-03T16:28:12.882Z,10.67
2022-10-03T16:30:21.978Z,8.03
2022-10-03T16:32:27.803Z,8.93
2022-10-03T16:34:31.185Z,11.93
2022-10-03T16:36:42.565Z,6.70
2022-10-03T16:38:47.498Z,5.10
2022-10-03T16:40:54.175Z,7.10
2022-10-03T16:42:58.941Z,7.40
2022-10-03T16:45:02.084Z,5.90
2022-10-03T16:47:05.487Z,6.43
2022-10-03T16:49:37.291Z,7.00
2022-10-03T16:52:02.337Z,7.80
2022-10-03T16:54:04.736Z,7.83
2022-10-03T16:56:08.146Z,10.70
2022-10-03T16:58:17.826Z,6.30
2022-10-03T17:00:27.211Z,8.23
2022-10-03T17:02:30.306Z,7.50
2022-10-03T17:04:39.178Z,6.63
2022-10-03T17:06:45.480Z,4.37
2022-10-03T17:08:51.429Z,6.30
2022-10-03T17:10:58.672Z,10.37
2022-10-03T17:13:04.464Z,9.53
2022-10-03T17:15:21.432Z,6.23
2022-10-03T17:17:25.924Z,7.40
2022-10-03T17:19:35.327Z,6.53
2022-10-03T17:21:41.923Z,6.57
2022-10-03T17:24:02.448Z,8.90
2022-10-03T17:26:21.291Z,6.07
2022-10-03T17:28:29.848Z,11.67
2022-10-03T17:31:00.533Z,13.70
2022-10-03T17:33:15.233Z,10.23
2022-10-03T17:35:28.353Z,10.13
2022-10-03T17:37:49.185Z,8.40
2022-10-03T17:40:00.039Z,7.07
2022-10-03T17:42:15.434Z,13.17
2022-10-03T17:44:36.564Z,6.77
2022-10-03T17:46:46.398Z,9.63
2022-10-03T17:49:07.447Z,7.63
2022-10-03T17:51:31.490Z,13.50
2022-10-03T17:53:36.600Z,12.50
2022-10-03T17:55:41.348Z,5.03
2022-10-03T17:57:50.559Z,10.77
2022-10-03T18:00:07.455Z,11.80
2022-10-03T18:02:21.290Z,11.47
2022-10-03T18:04:31.028Z,9.17
2022-10-03T18:06:38.974Z,8.07
2022-10-03T18:08:41.715Z,6.63
2022-10-03T18:10:49.381Z,5.23
2022-10-03T18:12:54.375Z,9.97
2022-10-03T18:15:20.838Z,7.63
2022-10-03T18:17:49.176Z,7.23
2022-10-03T18:19:56.923Z,5.23
2022-10-03T18:22:40.951Z,10.97
2022-10-03T18:24:56.568Z,10.13
2022-10-03T18:27:44.098Z,13.03
2022-10-03T18:30:17.355Z,6.40
2022-10-03T18:32:22.620Z,16.30
2022-10-03T18:34:34.545Z,7.60
2022-10-03T18:36:42.048Z,5.67
2022-10-03T18:38:44.999Z,5.67
2022-10-03T18:40:59.367Z,8.43
2022-10-03T18:43:05.175Z,10.67
2022-10-03T18:45:16.007Z,11.40
2022-10-03T18:47:23.310Z,8.17
2022-10-03T18:49:34.096Z,10.90
2022-10-03T18:51:46.291Z,12.23
2022-10-03T18:53:54.796Z,10.03
2022-10-03T18:56:21.897Z,8.67
2022-10-03T18:58:35.882Z,12.43
2022-10-03T19:00:48.125Z,9.13
2022-10-03T19:02:53.612Z,8.47
2022-10-03T19:05:00.038Z,8.73
2022-10-03T19:07:10.578Z,8.97
2022-10-03T19:09:22.400Z,12.13
2022-10-03T19:11:32.690Z,8.67
2022-10-03T19:14:00.490Z,8.87
2022-10-03T19:16:02.402Z,14.37
2022-10-03T19:18:21.090Z,5.80
2022-10-03T19:20:33.008Z,10.40
2022-10-03T19:22:39.929Z,7.13
2022-10-03T19:24:58.347Z,6.60
2022-10-03T19:27:10.979Z,7.40
2022-10-03T19:29:18.339Z,4.73
2022-10-03T19:31:30.823Z,6.63
2022-10-03T19:33:38.908Z,4.40
2022-10-03T19:35:47.529Z,9.27
2022-10-03T19:37:55.599Z,9.63
2022-10-03T19:39:58.833Z,7.73
2022-10-03T19:42:36.337Z,9.37
2022-10-03T19:44:38.687Z,5.97
2022-10-03T19:46:58.907Z,6.93
2022-10-03T19:49:00.863Z,4.80
2022-10-03T19:51:29.079Z,9.97
2022-10-03T19:53:31.890Z,15.83
2022-10-03T19:55:37.239Z,7.07
2022-10-03T19:57:45.345Z,5.97
2022-10-03T19:59:52.357Z,6.27
2022-10-03T20:01:57.712Z,4.37
2022-10-03T20:04:36.540Z,9.80
2022-10-03T20:06:43.124Z,4.60
2022-10-03T20:09:06.423Z,9.50
2022-10-03T20:11:45.931Z,7.30
2022-10-03T20:13:48.891Z,9.13
2022-10-03T20:15:52.453Z,9.20
2022-10-03T20:18:02.622Z,14.07
2022-10-03T20:20:07.825Z,7.67
2022-10-03T20:22:13.284Z,10.20
2022-10-03T20:24:57.629Z,4.97
2022-10-03T20:27:12.287Z,9.27
2022-10-03T20:29:23.970Z,5.97
2022-10-03T20:31:28.090Z,3.90
2022-10-03T20:33:32.901Z,4.67
2022-10-03T20:36:02.209Z,4.90
2022-10-03T20:38:07.829Z,8.83
2022-10-03T20:40:28.464Z,6.13
2022-10-03T20:42:36.445Z,7.50
2022-10-03T20:44:56.683Z,7.70
2022-10-03T20:47:14.555Z,5.60
2022-10-03T20:49:27.728Z,11.50
2022-10-03T20:51:42.629Z,10.17
2022-10-03T20:53:45.111Z,5.83
2022-10-03T20:55:51.214Z,4.30
2022-10-03T20:58:00.223Z,11.97
2022-10-03T21:00:10.738Z,11.97
2022-10-03T21:02:26.003Z,7.97
2022-10-03T21:04:31.516Z,5.67
2022-10-03T21:06:42.934Z,5.90
2022-10-03T21:08:45.220Z,6.23
2022-10-03T21:11:03.051Z,13.27
2022-10-03T21:13:15.339Z,11.33
2022-10-03T21:15:29.573Z,7.63
2022-10-03T21:17:32.493Z,8.73
2022-10-03T21:19:34.364Z,6.87
2022-10-03T21:21:42.337Z,5.20
2022-10-03T21:24:01.010Z,10.20
2022-10-03T21:26:03.494Z,9.83
2022-10-03T21:28:22.855Z,5.90
2022-10-03T21:30:52.188Z,8.90
2022-10-03T21:33:07.992Z,5.27
2022-10-03T21:35:26.749Z,9.13
2022-10-03T21:37:40.927Z,8.70
2022-10-03T21:39:54.917Z,5.63
2022-10-03T21:41:59.453Z,7.07
2022-10-03T21:44:03.897Z,8.40
2022-10-03T21:46:11.939Z,6.13
2022-10-03T21:48:26.184Z,12.70
2022-10-03T21:50:30.660Z,4.57
2022-10-03T21:52:50.678Z,6.23
2022-10-03T21:55:15.779Z,5.47
2022-10-03T21:57:39.291Z,6.77
2022-10-03T21:59:47.333Z,4.10
2022-10-03T22:01:57.355Z,8.80
2022-10-03T22:04:08.518Z,10.33
2022-10-03T22:06:26.628Z,6.60
2022-10-03T22:08:48.240Z,9.10
2022-10-03T22:11:08.810Z,5.17
2022-10-03T22:13:16.565Z,5.87
2022-10-03T22:15:26.339Z,9.17
2022-10-03T22:17:52.865Z,5.10
2022-10-03T22:20:16.568Z,13.47
2022-10-03T22:22:24.720Z,9.50
2022-10-03T22:24:55.928Z,8.43
2022-10-03T22:27:29.174Z,7.10
2022-10-03T22:29:44.426Z,8.90
2022-10-03T22:32:07.515Z,5.97
2022-10-03T22:34:34.209Z,7.70
2022-10-03T22:36:37.445Z,7.40
2022-10-03T22:38:40.839Z,6.23
2022-10-03T22:40:43.506Z,5.13
2022-10-03T22:42:51.314Z,10.03
2022-10-03T22:44:54.934Z,7.00
2022-10-03T22:47:00.298Z,9.37
2022-10-03T22:49:16.225Z,7.27
2022-10-03T22:51:20.268Z,8.40
2022-10-03T22:53:25.718Z,7.30
2022-10-03T22:55:28.256Z,6.70
2022-10-03T22:57:34.998Z,5.33
2022-10-03T23:00:02.315Z,8.77
2022-10-03T23:02:06.553Z,5.67
2022-10-03T23:04:13.766Z,5.37
2022-10-03T23:06:33.664Z,8.83
2022-10-03T23:08:50.556Z,8.60
2022-10-03T23:10:56.934Z,4.10
2022-10-03T23:13:07.739Z,11.40
2022-10-03T23:15:10.266Z,9.47
2022-10-03T23:17:33.678Z,17.53
2022-10-03T23:19:44.850Z,4.17
2022-10-03T23:21:51.776Z,9.83
2022-10-03T23:24:05.822Z,8.70
2022-10-03T23:26:26.363Z,8.70
2022-10-03T23:29:02.901Z,11.77
2022-10-03T23:31:05.468Z,8.10
2022-10-03T23:33:15.695Z,6.10
2022-10-03T23:35:35.178Z,8.67
2022-10-03T23:37:40.194Z,10.40
2022-10-03T23:39:57.068Z,4.70
2022-10-03T23:42:01.082Z,5.50
2022-10-03T23:44:03.040Z,8.90
2022-10-03T23:46:29.384Z,12.17
2022-10-03T23:48:40.035Z,10.47
2022-10-03T23:50:58.107Z,7.57
2022-10-03T23:53:00.663Z,10.13
2022-10-03T23:55:06.651Z,4.37
2022-10-03T23:57:09.411Z,9.63
2022-10-03T23:59:24.106Z,14.07
